sensor_id;sensor_type;location;lat;lon;timestamp;temperature;humidity
8595;DHT22;4335;48.860;9.198;2023-08-08T00:02:16;14.50;99.90
8595;DHT22;4335;48.860;9.198;2023-08-08T00:04:45;14.50;99.90
8595;DHT22;4335;48.860;9.198;2023-08-08T00:07:12;14.40;99.90
8595;DHT22;4335;48.860;9.198;2023-08-08T00:09:39;14.40;99.90
8595;DHT22;4335;48.860;9.198;2023-08-08T00:12:09;14.50;99.90
8595;DHT22;4335;48.860;9.198;2023-08-08T00:14:42;14.50;99.90
8595;DHT22;4335;48.860;9.198;2023-08-08T00:17:14;14.50;99.90
8595;DHT22;4335;48.860;9.198;2023-08-08T00:19:47;14.50;99.90
8595;DHT22;4335;48.860;9.198;2023-08-08T00:22:16;14.60;99.90
8595;DHT22;4335;48.860;9.198;2023-08-08T00:24:44;14.60;99.90
8595;DHT22;4335;48.860;9.198;2023-08-08T00:27:10;14.70;99.90
8595;DHT22;4335;48.860;9.198;2023-08-08T00:29:40;14.70;99.90
8595;DHT22;4335;48.860;9.198;2023-08-08T00:32:07;14.70;99.90
8595;DHT22;4335;48.860;9.198;2023-08-08T00:34:36;14.70;99.90
8595;DHT22;4335;48.860;9.198;2023-08-08T00:37:06;14.80;99.90
8595;DHT22;4335;48.860;9.198;2023-08-08T00:39:36;14.80;99.90
8595;DHT22;4335;48.860;9.198;2023-08-08T00:42:04;14.80;99.90
8595;DHT22;4335;48.860;9.198;2023-08-08T00:44:30;14.80;99.90
8595;DHT22;4335;48.860;9.198;2023-08-08T00:46:57;14.80;99.90
8595;DHT22;4335;48.860;9.198;2023-08-08T00:49:30;14.80;99.90
8595;DHT22;4335;48.860;9.198;2023-08-08T00:51:56;14.80;99.90
8595;DHT22;4335;48.860;9.198;2023-08-08T00:54:25;14.80;99.90
8595;DHT22;4335;48.860;9.198;2023-08-08T00:56:52;14.80;99.90
8595;DHT22;4335;48.860;9.198;2023-08-08T00:59:23;14.80;99.90
8595;DHT22;4335;48.860;9.198;2023-08-08T01:01:50;14.90;99.90
8595;DHT22;4335;48.860;9.198;2023-08-08T01:04:17;14.80;99.90
8595;DHT22;4335;48.860;9.198;2023-08-08T01:06:54;14.90;99.90
8595;DHT22;4335;48.860;9.198;2023-08-08T01:09:30;14.90;99.90
8595;DHT22;4335;48.860;9.198;2023-08-08T01:12:02;14.90;99.90
8595;DHT22;4335;48.860;9.198;2023-08-08T01:14:32;15.00;99.90
8595;DHT22;4335;48.860;9.198;2023-08-08T01:17:00;15.00;99.90
8595;DHT22;4335;48.860;9.198;2023-08-08T01:19:28;15.00;99.90
8595;DHT22;4335;48.860;9.198;2023-08-08T01:21:58;15.00;99.90
8595;DHT22;4335;48.860;9.198;2023-08-08T01:24:28;15.00;99.90
8595;DHT22;4335;48.860;9.198;2023-08-08T01:26:55;15.00;99.90
8595;DHT22;4335;48.860;9.198;2023-08-08T01:29:43;15.00;99.90
8595;DHT22;4335;48.860;9.198;2023-08-08T01:32:13;15.10;99.90
8595;DHT22;4335;48.860;9.198;2023-08-08T01:34:40;15.10;99.90
8595;DHT22;4335;48.860;9.198;2023-08-08T01:37:11;15.10;99.90
8595;DHT22;4335;48.860;9.198;2023-08-08T01:39:41;15.00;99.90
8595;DHT22;4335;48.860;9.198;2023-08-08T01:42:15;15.00;99.90
8595;DHT22;4335;48.860;9.198;2023-08-08T01:44:53;15.00;99.90
8595;DHT22;4335;48.860;9.198;2023-08-08T01:47:20;15.10;99.90
8595;DHT22;4335;48.860;9.198;2023-08-08T01:49:46;15.00;99.90
8595;DHT22;4335;48.860;9.198;2023-08-08T01:52:13;15.00;99.90
8595;DHT22;4335;48.860;9.198;2023-08-08T01:54:47;15.00;99.90
8595;DHT22;4335;48.860;9.198;2023-08-08T01:57:13;15.00;99.90
8595;DHT22;4335;48.860;9.198;2023-08-08T01:59:42;15.10;99.90
8595;DHT22;4335;48.860;9.198;2023-08-08T02:02:18;15.10;99.90
8595;DHT22;4335;48.860;9.198;2023-08-08T02:04:45;15.10;99.90
8595;DHT22;4335;48.860;9.198;2023-08-08T02:07:12;15.00;99.90
8595;DHT22;4335;48.860;9.198;2023-08-08T02:09:42;15.00;99.90
8595;DHT22;4335;48.860;9.198;2023-08-08T02:12:41;15.00;99.90
8595;DHT22;4335;48.860;9.198;2023-08-08T02:15:09;15.00;99.90
8595;DHT22;4335;48.860;9.198;2023-08-08T02:17:45;15.00;99.90
8595;DHT22;4335;48.860;9.198;2023-08-08T02:20:14;15.00;99.90
8595;DHT22;4335;48.860;9.198;2023-08-08T02:22:44;15.00;99.90
8595;DHT22;4335;48.860;9.198;2023-08-08T02:25:17;15.00;99.90
8595;DHT22;4335;48.860;9.198;2023-08-08T02:27:44;15.00;99.90
8595;DHT22;4335;48.860;9.198;2023-08-08T02:30:14;15.00;99.90
8595;DHT22;4335;48.860;9.198;2023-08-08T02:32:41;15.10;99.90
8595;DHT22;4335;48.860;9.198;2023-08-08T02:35:08;15.10;99.90
8595;DHT22;4335;48.860;9.198;2023-08-08T02:37:41;15.10;99.90
8595;DHT22;4335;48.860;9.198;2023-08-08T02:40:11;15.10;99.90
8595;DHT22;4335;48.860;9.198;2023-08-08T02:42:37;15.00;99.90
8595;DHT22;4335;48.860;9.198;2023-08-08T02:45:06;15.00;99.90
8595;DHT22;4335;48.860;9.198;2023-08-08T02:47:33;15.00;99.90
8595;DHT22;4335;48.860;9.198;2023-08-08T02:50:03;14.90;99.90
8595;DHT22;4335;48.860;9.198;2023-08-08T02:52:30;14.90;99.90
8595;DHT22;4335;48.860;9.198;2023-08-08T02:54:59;14.90;99.90
8595;DHT22;4335;48.860;9.198;2023-08-08T02:57:27;14.80;99.90
8595;DHT22;4335;48.860;9.198;2023-08-08T02:59:57;14.80;99.90
8595;DHT22;4335;48.860;9.198;2023-08-08T03:02:25;14.70;99.90
8595;DHT22;4335;48.860;9.198;2023-08-08T03:04:51;14.70;99.90
8595;DHT22;4335;48.860;9.198;2023-08-08T03:07:18;14.70;99.90
8595;DHT22;4335;48.860;9.198;2023-08-08T03:09:45;14.60;99.90
8595;DHT22;4335;48.860;9.198;2023-08-08T03:12:14;14.60;99.90
8595;DHT22;4335;48.860;9.198;2023-08-08T03:14:41;14.60;99.90
8595;DHT22;4335;48.860;9.198;2023-08-08T03:17:07;14.60;99.90
8595;DHT22;4335;48.860;9.198;2023-08-08T03:19:35;14.50;99.90
8595;DHT22;4335;48.860;9.198;2023-08-08T03:22:02;14.50;99.90
8595;DHT22;4335;48.860;9.198;2023-08-08T03:24:28;14.50;99.90
8595;DHT22;4335;48.860;9.198;2023-08-08T03:27:01;14.50;99.90
8595;DHT22;4335;48.860;9.198;2023-08-08T03:29:28;14.50;99.90
8595;DHT22;4335;48.860;9.198;2023-08-08T03:31:54;14.40;99.90
8595;DHT22;4335;48.860;9.198;2023-08-08T03:34:24;14.40;99.90
8595;DHT22;4335;48.860;9.198;2023-08-08T03:36:51;14.50;99.90
8595;DHT22;4335;48.860;9.198;2023-08-08T03:39:18;14.50;99.90
8595;DHT22;4335;48.860;9.198;2023-08-08T03:41:44;14.50;99.90
8595;DHT22;4335;48.860;9.198;2023-08-08T03:44:21;14.50;99.90
8595;DHT22;4335;48.860;9.198;2023-08-08T03:46:48;14.50;99.90
8595;DHT22;4335;48.860;9.198;2023-08-08T03:49:15;14.60;99.90
8595;DHT22;4335;48.860;9.198;2023-08-08T03:51:42;14.60;99.90
8595;DHT22;4335;48.860;9.198;2023-08-08T03:54:09;14.60;99.90
8595;DHT22;4335;48.860;9.198;2023-08-08T03:56:36;14.60;99.90
8595;DHT22;4335;48.860;9.198;2023-08-08T03:59:03;14.60;99.90
8595;DHT22;4335;48.860;9.198;2023-08-08T04:01:29;14.60;99.90
8595;DHT22;4335;48.860;9.198;2023-08-08T04:03:56;14.60;99.90
8595;DHT22;4335;48.860;9.198;2023-08-08T04:06:23;14.60;99.90
8595;DHT22;4335;48.860;9.198;2023-08-08T04:08:49;14.60;99.90
8595;DHT22;4335;48.860;9.198;2023-08-08T04:11:17;14.60;99.90
8595;DHT22;4335;48.860;9.198;2023-08-08T04:13:43;14.70;99.90
8595;DHT22;4335;48.860;9.198;2023-08-08T04:16:16;14.70;99.90
8595;DHT22;4335;48.860;9.198;2023-08-08T04:18:43;14.70;99.90
8595;DHT22;4335;48.860;9.198;2023-08-08T04:21:12;14.70;99.90
8595;DHT22;4335;48.860;9.198;2023-08-08T04:23:39;14.70;99.90
8595;DHT22;4335;48.860;9.198;2023-08-08T04:26:11;14.80;99.90
8595;DHT22;4335;48.860;9.198;2023-08-08T04:28:41;14.80;99.90
8595;DHT22;4335;48.860;9.198;2023-08-08T04:31:08;14.80;99.90
8595;DHT22;4335;48.860;9.198;2023-08-08T04:33:34;14.80;99.90
8595;DHT22;4335;48.860;9.198;2023-08-08T04:36:09;14.80;99.90
8595;DHT22;4335;48.860;9.198;2023-08-08T04:38:36;14.80;99.90
8595;DHT22;4335;48.860;9.198;2023-08-08T04:41:09;14.80;99.90
8595;DHT22;4335;48.860;9.198;2023-08-08T04:43:36;14.90;99.90
8595;DHT22;4335;48.860;9.198;2023-08-08T04:46:06;14.90;99.90
8595;DHT22;4335;48.860;9.198;2023-08-08T04:48:33;14.90;99.90
8595;DHT22;4335;48.860;9.198;2023-08-08T04:51:05;14.90;99.90
8595;DHT22;4335;48.860;9.198;2023-08-08T04:53:38;15.00;99.90
8595;DHT22;4335;48.860;9.198;2023-08-08T04:56:07;15.00;99.90
8595;DHT22;4335;48.860;9.198;2023-08-08T04:58:34;15.10;99.90
8595;DHT22;4335;48.860;9.198;2023-08-08T05:01:07;15.10;99.90
8595;DHT22;4335;48.860;9.198;2023-08-08T05:03:34;15.20;99.90
8595;DHT22;4335;48.860;9.198;2023-08-08T05:06:10;15.30;99.90
8595;DHT22;4335;48.860;9.198;2023-08-08T05:08:39;15.30;99.90
8595;DHT22;4335;48.860;9.198;2023-08-08T05:11:06;15.40;99.90
8595;DHT22;4335;48.860;9.198;2023-08-08T05:13:45;15.60;99.90
8595;DHT22;4335;48.860;9.198;2023-08-08T05:16:20;15.80;99.90
8595;DHT22;4335;48.860;9.198;2023-08-08T05:18:48;16.00;99.90
8595;DHT22;4335;48.860;9.198;2023-08-08T05:21:15;16.40;99.90
8595;DHT22;4335;48.860;9.198;2023-08-08T05:23:41;16.90;99.90
8595;DHT22;4335;48.860;9.198;2023-08-08T05:26:11;17.30;99.90
8595;DHT22;4335;48.860;9.198;2023-08-08T05:28:44;17.80;99.90
8595;DHT22;4335;48.860;9.198;2023-08-08T05:31:14;18.30;99.90
8595;DHT22;4335;48.860;9.198;2023-08-08T05:33:41;18.80;99.90
8595;DHT22;4335;48.860;9.198;2023-08-08T05:36:13;19.00;99.90
8595;DHT22;4335;48.860;9.198;2023-08-08T05:38:43;19.10;99.90
8595;DHT22;4335;48.860;9.198;2023-08-08T05:41:10;19.20;99.90
8595;DHT22;4335;48.860;9.198;2023-08-08T05:43:39;19.40;99.90
8595;DHT22;4335;48.860;9.198;2023-08-08T05:46:06;19.50;99.90
8595;DHT22;4335;48.860;9.198;2023-08-08T05:48:33;19.70;99.90
8595;DHT22;4335;48.860;9.198;2023-08-08T05:50:59;20.10;99.90
8595;DHT22;4335;48.860;9.198;2023-08-08T05:53:28;20.20;99.90
8595;DHT22;4335;48.860;9.198;2023-08-08T05:55:55;20.40;99.90
8595;DHT22;4335;48.860;9.198;2023-08-08T05:58:25;20.70;99.90
8595;DHT22;4335;48.860;9.198;2023-08-08T06:00:52;21.00;99.90
8595;DHT22;4335;48.860;9.198;2023-08-08T06:03:19;21.30;99.90
8595;DHT22;4335;48.860;9.198;2023-08-08T06:05:52;21.50;99.90
8595;DHT22;4335;48.860;9.198;2023-08-08T06:08:19;21.90;99.90
8595;DHT22;4335;48.860;9.198;2023-08-08T06:10:46;21.90;99.90
8595;DHT22;4335;48.860;9.198;2023-08-08T06:13:12;22.20;99.90
8595;DHT22;4335;48.860;9.198;2023-08-08T06:15:45;22.50;99.90
8595;DHT22;4335;48.860;9.198;2023-08-08T06:18:12;23.00;99.90
8595;DHT22;4335;48.860;9.198;2023-08-08T06:20:38;23.70;99.90
8595;DHT22;4335;48.860;9.198;2023-08-08T06:23:06;24.30;99.90
8595;DHT22;4335;48.860;9.198;2023-08-08T06:25:33;24.80;99.90
8595;DHT22;4335;48.860;9.198;2023-08-08T06:27:59;25.20;99.90
8595;DHT22;4335;48.860;9.198;2023-08-08T06:30:26;25.90;99.90
8595;DHT22;4335;48.860;9.198;2023-08-08T06:33:01;26.50;98.80
8595;DHT22;4335;48.860;9.198;2023-08-08T06:35:28;26.70;97.00
8595;DHT22;4335;48.860;9.198;2023-08-08T06:37:54;25.80;97.30
8595;DHT22;4335;48.860;9.198;2023-08-08T06:40:22;25.90;97.90
8595;DHT22;4335;48.860;9.198;2023-08-08T06:42:49;26.10;97.70
8595;DHT22;4335;48.860;9.198;2023-08-08T06:45:16;25.80;97.80
8595;DHT22;4335;48.860;9.198;2023-08-08T06:47:48;25.60;98.00
8595;DHT22;4335;48.860;9.198;2023-08-08T06:50:15;25.40;98.00
8595;DHT22;4335;48.860;9.198;2023-08-08T06:52:45;24.90;98.70
8595;DHT22;4335;48.860;9.198;2023-08-08T06:55:11;25.00;99.40
8595;DHT22;4335;48.860;9.198;2023-08-08T06:57:39;24.70;99.40
8595;DHT22;4335;48.860;9.198;2023-08-08T07:00:06;25.00;99.90
8595;DHT22;4335;48.860;9.198;2023-08-08T07:02:34;25.40;98.90
8595;DHT22;4335;48.860;9.198;2023-08-08T07:05:01;25.50;98.30
8595;DHT22;4335;48.860;9.198;2023-08-08T07:07:29;25.60;97.90
8595;DHT22;4335;48.860;9.198;2023-08-08T07:09:56;26.00;97.30
8595;DHT22;4335;48.860;9.198;2023-08-08T07:12:23;26.40;96.60
8595;DHT22;4335;48.860;9.198;2023-08-08T07:14:50;26.80;95.90
8595;DHT22;4335;48.860;9.198;2023-08-08T07:17:17;27.00;94.30
8595;DHT22;4335;48.860;9.198;2023-08-08T07:19:47;27.10;93.10
8595;DHT22;4335;48.860;9.198;2023-08-08T07:22:14;27.10;93.00
8595;DHT22;4335;48.860;9.198;2023-08-08T07:24:46;27.60;91.90
8595;DHT22;4335;48.860;9.198;2023-08-08T07:27:13;28.20;91.40
8595;DHT22;4335;48.860;9.198;2023-08-08T07:29:43;28.50;90.10
8595;DHT22;4335;48.860;9.198;2023-08-08T07:32:10;28.50;89.10
8595;DHT22;4335;48.860;9.198;2023-08-08T07:34:37;29.40;86.60
8595;DHT22;4335;48.860;9.198;2023-08-08T07:37:04;29.40;84.70
8595;DHT22;4335;48.860;9.198;2023-08-08T07:39:30;30.30;82.00
8595;DHT22;4335;48.860;9.198;2023-08-08T07:41:57;30.60;78.40
8595;DHT22;4335;48.860;9.198;2023-08-08T07:44:27;31.80;74.90
8595;DHT22;4335;48.860;9.198;2023-08-08T07:46:56;32.90;70.20
8595;DHT22;4335;48.860;9.198;2023-08-08T07:49:29;33.40;65.70
8595;DHT22;4335;48.860;9.198;2023-08-08T07:51:58;33.20;63.10
8595;DHT22;4335;48.860;9.198;2023-08-08T07:54:25;33.70;61.90
8595;DHT22;4335;48.860;9.198;2023-08-08T07:56:58;34.10;60.30
8595;DHT22;4335;48.860;9.198;2023-08-08T07:59:24;34.00;58.80
8595;DHT22;4335;48.860;9.198;2023-08-08T08:01:57;33.70;57.50
8595;DHT22;4335;48.860;9.198;2023-08-08T08:04:37;33.00;58.40
8595;DHT22;4335;48.860;9.198;2023-08-08T08:07:04;31.40;60.40
8595;DHT22;4335;48.860;9.198;2023-08-08T08:09:31;30.30;63.00
8595;DHT22;4335;48.860;9.198;2023-08-08T08:12:00;28.90;65.00
8595;DHT22;4335;48.860;9.198;2023-08-08T08:14:27;27.90;69.20
8595;DHT22;4335;48.860;9.198;2023-08-08T08:16:54;27.00;72.50
8595;DHT22;4335;48.860;9.198;2023-08-08T08:19:20;26.60;75.00
8595;DHT22;4335;48.860;9.198;2023-08-08T08:21:48;26.20;76.90
8595;DHT22;4335;48.860;9.198;2023-08-08T08:24:15;25.40;79.20
8595;DHT22;4335;48.860;9.198;2023-08-08T08:26:41;25.10;82.00
8595;DHT22;4335;48.860;9.198;2023-08-08T08:29:11;24.80;84.30
8595;DHT22;4335;48.860;9.198;2023-08-08T08:31:38;24.90;86.20
8595;DHT22;4335;48.860;9.198;2023-08-08T08:34:07;24.90;86.60
8595;DHT22;4335;48.860;9.198;2023-08-08T08:36:41;25.20;87.50
8595;DHT22;4335;48.860;9.198;2023-08-08T08:39:18;25.40;86.90
8595;DHT22;4335;48.860;9.198;2023-08-08T08:41:48;25.70;86.80
8595;DHT22;4335;48.860;9.198;2023-08-08T08:44:16;26.20;84.90
8595;DHT22;4335;48.860;9.198;2023-08-08T08:46:45;26.90;83.30
8595;DHT22;4335;48.860;9.198;2023-08-08T08:49:17;27.10;79.90
8595;DHT22;4335;48.860;9.198;2023-08-08T08:51:54;27.70;78.70
8595;DHT22;4335;48.860;9.198;2023-08-08T08:54:25;28.10;76.80
8595;DHT22;4335;48.860;9.198;2023-08-08T08:56:53;28.50;75.70
8595;DHT22;4335;48.860;9.198;2023-08-08T08:59:26;28.50;74.70
8595;DHT22;4335;48.860;9.198;2023-08-08T09:01:53;28.60;75.40
8595;DHT22;4335;48.860;9.198;2023-08-08T09:04:21;28.40;73.50
8595;DHT22;4335;48.860;9.198;2023-08-08T09:06:51;28.10;73.50
8595;DHT22;4335;48.860;9.198;2023-08-08T09:09:18;28.00;73.10
8595;DHT22;4335;48.860;9.198;2023-08-08T09:12:06;27.80;73.20
8595;DHT22;4335;48.860;9.198;2023-08-08T09:14:33;27.40;73.40
8595;DHT22;4335;48.860;9.198;2023-08-08T09:17:03;27.70;73.80
8595;DHT22;4335;48.860;9.198;2023-08-08T09:19:30;28.20;73.10
8595;DHT22;4335;48.860;9.198;2023-08-08T09:21:59;28.40;69.60
8595;DHT22;4335;48.860;9.198;2023-08-08T09:24:31;29.10;68.20
8595;DHT22;4335;48.860;9.198;2023-08-08T09:27:04;29.80;65.60
8595;DHT22;4335;48.860;9.198;2023-08-08T09:29:33;29.70;65.10
8595;DHT22;4335;48.860;9.198;2023-08-08T09:32:06;29.70;64.50
8595;DHT22;4335;48.860;9.198;2023-08-08T09:34:34;29.50;64.00
8595;DHT22;4335;48.860;9.198;2023-08-08T09:37:03;29.40;64.30
8595;DHT22;4335;48.860;9.198;2023-08-08T09:39:38;29.50;62.90
8595;DHT22;4335;48.860;9.198;2023-08-08T09:42:05;29.80;61.10
8595;DHT22;4335;48.860;9.198;2023-08-08T09:44:45;30.00;59.10
8595;DHT22;4335;48.860;9.198;2023-08-08T09:47:20;30.30;58.50
8595;DHT22;4335;48.860;9.198;2023-08-08T09:49:50;30.60;57.80
8595;DHT22;4335;48.860;9.198;2023-08-08T09:52:17;30.70;57.50
8595;DHT22;4335;48.860;9.198;2023-08-08T09:54:44;31.00;56.10
8595;DHT22;4335;48.860;9.198;2023-08-08T09:57:21;32.00;55.60
8595;DHT22;4335;48.860;9.198;2023-08-08T09:59:49;31.90;54.70
8595;DHT22;4335;48.860;9.198;2023-08-08T10:02:16;31.00;54.70
8595;DHT22;4335;48.860;9.198;2023-08-08T10:04:53;31.10;55.50
8595;DHT22;4335;48.860;9.198;2023-08-08T10:07:20;31.70;55.20
8595;DHT22;4335;48.860;9.198;2023-08-08T10:09:49;31.50;53.70
8595;DHT22;4335;48.860;9.198;2023-08-08T10:12:16;30.80;54.00
8595;DHT22;4335;48.860;9.198;2023-08-08T10:14:50;30.70;55.40
8595;DHT22;4335;48.860;9.198;2023-08-08T10:17:18;30.70;55.70
8595;DHT22;4335;48.860;9.198;2023-08-08T10:19:53;31.30;54.40
8595;DHT22;4335;48.860;9.198;2023-08-08T10:22:24;32.70;52.90
8595;DHT22;4335;48.860;9.198;2023-08-08T10:24:52;32.90;52.10
8595;DHT22;4335;48.860;9.198;2023-08-08T10:27:31;32.60;51.90
8595;DHT22;4335;48.860;9.198;2023-08-08T10:30:08;31.60;52.30
8595;DHT22;4335;48.860;9.198;2023-08-08T10:32:40;30.70;52.90
8595;DHT22;4335;48.860;9.198;2023-08-08T10:35:07;30.30;54.10
8595;DHT22;4335;48.860;9.198;2023-08-08T10:37:34;30.10;54.80
8595;DHT22;4335;48.860;9.198;2023-08-08T10:40:07;30.00;54.50
8595;DHT22;4335;48.860;9.198;2023-08-08T10:42:41;30.60;53.90
8595;DHT22;4335;48.860;9.198;2023-08-08T10:45:12;31.10;53.30
8595;DHT22;4335;48.860;9.198;2023-08-08T10:47:39;31.00;53.30
8595;DHT22;4335;48.860;9.198;2023-08-08T10:50:16;30.70;52.50
8595;DHT22;4335;48.860;9.198;2023-08-08T10:52:56;30.60;52.80
8595;DHT22;4335;48.860;9.198;2023-08-08T10:55:24;30.20;53.70
8595;DHT22;4335;48.860;9.198;2023-08-08T10:57:59;29.50;55.20
8595;DHT22;4335;48.860;9.198;2023-08-08T11:00:28;28.50;57.10
8595;DHT22;4335;48.860;9.198;2023-08-08T11:02:59;27.90;58.90
8595;DHT22;4335;48.860;9.198;2023-08-08T11:05:41;27.40;59.00
8595;DHT22;4335;48.860;9.198;2023-08-08T11:08:12;26.90;60.00
8595;DHT22;4335;48.860;9.198;2023-08-08T11:10:43;26.70;61.30
8595;DHT22;4335;48.860;9.198;2023-08-08T11:13:09;26.30;61.80
8595;DHT22;4335;48.860;9.198;2023-08-08T11:15:37;26.00;62.90
8595;DHT22;4335;48.860;9.198;2023-08-08T11:18:05;25.70;62.10
8595;DHT22;4335;48.860;9.198;2023-08-08T11:20:36;25.60;63.10
8595;DHT22;4335;48.860;9.198;2023-08-08T11:23:03;25.40;63.60
8595;DHT22;4335;48.860;9.198;2023-08-08T11:25:31;25.00;63.60
8595;DHT22;4335;48.860;9.198;2023-08-08T11:27:58;25.00;64.10
8595;DHT22;4335;48.860;9.198;2023-08-08T11:30:29;24.80;64.50
8595;DHT22;4335;48.860;9.198;2023-08-08T11:32:57;24.70;65.60
8595;DHT22;4335;48.860;9.198;2023-08-08T11:35:26;24.60;66.40
8595;DHT22;4335;48.860;9.198;2023-08-08T11:37:53;24.60;66.80
8595;DHT22;4335;48.860;9.198;2023-08-08T11:40:23;24.70;67.30
8595;DHT22;4335;48.860;9.198;2023-08-08T11:42:54;24.60;67.60
8595;DHT22;4335;48.860;9.198;2023-08-08T11:45:21;24.40;67.20
8595;DHT22;4335;48.860;9.198;2023-08-08T11:47:49;24.50;68.30
8595;DHT22;4335;48.860;9.198;2023-08-08T11:50:20;24.40;67.80
8595;DHT22;4335;48.860;9.198;2023-08-08T11:52:50;24.30;67.10
8595;DHT22;4335;48.860;9.198;2023-08-08T11:55:17;24.40;67.20
8595;DHT22;4335;48.860;9.198;2023-08-08T11:57:48;24.40;68.90
8595;DHT22;4335;48.860;9.198;2023-08-08T12:00:15;24.40;69.40
8595;DHT22;4335;48.860;9.198;2023-08-08T12:02:43;24.30;69.20
8595;DHT22;4335;48.860;9.198;2023-08-08T12:05:11;24.40;69.10
8595;DHT22;4335;48.860;9.198;2023-08-08T12:07:39;24.40;68.00
8595;DHT22;4335;48.860;9.198;2023-08-08T12:10:14;24.30;68.20
8595;DHT22;4335;48.860;9.198;2023-08-08T12:12:42;24.20;68.90
8595;DHT22;4335;48.860;9.198;2023-08-08T12:15:10;24.20;69.30
8595;DHT22;4335;48.860;9.198;2023-08-08T12:17:37;24.30;68.90
8595;DHT22;4335;48.860;9.198;2023-08-08T12:20:18;24.40;68.40
8595;DHT22;4335;48.860;9.198;2023-08-08T12:22:51;24.30;66.70
8595;DHT22;4335;48.860;9.198;2023-08-08T12:25:23;24.40;66.20
8595;DHT22;4335;48.860;9.198;2023-08-08T12:27:56;24.50;66.80
8595;DHT22;4335;48.860;9.198;2023-08-08T12:30:25;24.60;66.20
8595;DHT22;4335;48.860;9.198;2023-08-08T12:32:55;24.60;67.40
8595;DHT22;4335;48.860;9.198;2023-08-08T12:35:25;24.50;67.10
8595;DHT22;4335;48.860;9.198;2023-08-08T12:37:53;24.50;67.70
8595;DHT22;4335;48.860;9.198;2023-08-08T12:40:28;24.60;69.30
8595;DHT22;4335;48.860;9.198;2023-08-08T12:42:58;24.50;69.00
8595;DHT22;4335;48.860;9.198;2023-08-08T12:45:25;24.40;69.40
8595;DHT22;4335;48.860;9.198;2023-08-08T12:47:55;24.50;70.20
8595;DHT22;4335;48.860;9.198;2023-08-08T12:50:24;24.40;70.20
8595;DHT22;4335;48.860;9.198;2023-08-08T12:52:55;24.20;70.90
8595;DHT22;4335;48.860;9.198;2023-08-08T12:55:21;24.20;71.40
8595;DHT22;4335;48.860;9.198;2023-08-08T12:57:51;24.20;72.20
8595;DHT22;4335;48.860;9.198;2023-08-08T13:00:18;24.00;71.60
8595;DHT22;4335;48.860;9.198;2023-08-08T13:02:44;23.80;72.80
8595;DHT22;4335;48.860;9.198;2023-08-08T13:05:17;23.70;73.50
8595;DHT22;4335;48.860;9.198;2023-08-08T13:07:44;23.70;73.70
8595;DHT22;4335;48.860;9.198;2023-08-08T13:10:13;23.60;74.40
8595;DHT22;4335;48.860;9.198;2023-08-08T13:12:43;23.60;74.70
8595;DHT22;4335;48.860;9.198;2023-08-08T13:15:10;23.60;75.20
8595;DHT22;4335;48.860;9.198;2023-08-08T13:17:40;23.70;76.70
8595;DHT22;4335;48.860;9.198;2023-08-08T13:20:10;23.70;75.90
8595;DHT22;4335;48.860;9.198;2023-08-08T13:22:38;23.90;75.10
8595;DHT22;4335;48.860;9.198;2023-08-08T13:25:06;23.90;75.40
8595;DHT22;4335;48.860;9.198;2023-08-08T13:27:36;24.00;74.90
8595;DHT22;4335;48.860;9.198;2023-08-08T13:30:07;24.10;74.90
8595;DHT22;4335;48.860;9.198;2023-08-08T13:32:33;24.20;75.50
8595;DHT22;4335;48.860;9.198;2023-08-08T13:35:00;24.00;75.90
8595;DHT22;4335;48.860;9.198;2023-08-08T13:37:27;24.00;76.60
8595;DHT22;4335;48.860;9.198;2023-08-08T13:39:53;23.90;77.60
8595;DHT22;4335;48.860;9.198;2023-08-08T13:42:23;23.90;78.20
8595;DHT22;4335;48.860;9.198;2023-08-08T13:44:50;23.90;79.50
8595;DHT22;4335;48.860;9.198;2023-08-08T13:47:23;23.80;79.30
8595;DHT22;4335;48.860;9.198;2023-08-08T13:49:52;23.70;79.40
8595;DHT22;4335;48.860;9.198;2023-08-08T13:52:19;23.70;79.20
8595;DHT22;4335;48.860;9.198;2023-08-08T13:54:46;23.70;79.50
8595;DHT22;4335;48.860;9.198;2023-08-08T13:57:12;23.50;79.80
8595;DHT22;4335;48.860;9.198;2023-08-08T13:59:42;23.50;79.30
8595;DHT22;4335;48.860;9.198;2023-08-08T14:02:09;23.50;79.10
8595;DHT22;4335;48.860;9.198;2023-08-08T14:04:40;23.60;78.80
8595;DHT22;4335;48.860;9.198;2023-08-08T14:07:10;23.70;78.80
8595;DHT22;4335;48.860;9.198;2023-08-08T14:09:43;23.70;77.80
8595;DHT22;4335;48.860;9.198;2023-08-08T14:12:15;23.90;78.80
8595;DHT22;4335;48.860;9.198;2023-08-08T14:14:43;23.80;77.40
8595;DHT22;4335;48.860;9.198;2023-08-08T14:17:10;23.90;77.20
8595;DHT22;4335;48.860;9.198;2023-08-08T14:19:37;23.90;77.90
8595;DHT22;4335;48.860;9.198;2023-08-08T14:22:03;23.90;77.20
8595;DHT22;4335;48.860;9.198;2023-08-08T14:24:32;23.90;78.70
8595;DHT22;4335;48.860;9.198;2023-08-08T14:27:02;24.00;79.20
8595;DHT22;4335;48.860;9.198;2023-08-08T14:29:29;24.00;78.90
8595;DHT22;4335;48.860;9.198;2023-08-08T14:31:58;24.00;78.70
8595;DHT22;4335;48.860;9.198;2023-08-08T14:34:31;24.10;79.00
8595;DHT22;4335;48.860;9.198;2023-08-08T14:37:00;24.10;77.00
8595;DHT22;4335;48.860;9.198;2023-08-08T14:39:27;24.10;76.30
8595;DHT22;4335;48.860;9.198;2023-08-08T14:41:55;24.00;77.40
8595;DHT22;4335;48.860;9.198;2023-08-08T14:44:25;23.90;77.20
8595;DHT22;4335;48.860;9.198;2023-08-08T14:46:55;23.80;78.30
8595;DHT22;4335;48.860;9.198;2023-08-08T14:49:22;23.60;79.00
8595;DHT22;4335;48.860;9.198;2023-08-08T14:51:59;23.50;79.20
8595;DHT22;4335;48.860;9.198;2023-08-08T14:54:26;23.40;80.20
8595;DHT22;4335;48.860;9.198;2023-08-08T14:56:53;23.20;81.00
8595;DHT22;4335;48.860;9.198;2023-08-08T14:59:25;23.10;81.80
8595;DHT22;4335;48.860;9.198;2023-08-08T15:02:02;23.10;82.30
8595;DHT22;4335;48.860;9.198;2023-08-08T15:04:29;23.10;83.10
8595;DHT22;4335;48.860;9.198;2023-08-08T15:06:56;23.10;83.40
8595;DHT22;4335;48.860;9.198;2023-08-08T15:09:23;23.10;83.90
8595;DHT22;4335;48.860;9.198;2023-08-08T15:11:52;23.00;84.30
8595;DHT22;4335;48.860;9.198;2023-08-08T15:14:19;22.90;85.10
8595;DHT22;4335;48.860;9.198;2023-08-08T15:16:51;22.90;85.90
8595;DHT22;4335;48.860;9.198;2023-08-08T15:19:19;22.80;86.40
8595;DHT22;4335;48.860;9.198;2023-08-08T15:21:46;22.80;87.10
8595;DHT22;4335;48.860;9.198;2023-08-08T15:24:21;22.80;87.80
8595;DHT22;4335;48.860;9.198;2023-08-08T15:27:06;22.80;88.30
8595;DHT22;4335;48.860;9.198;2023-08-08T15:29:44;22.90;88.40
8595;DHT22;4335;48.860;9.198;2023-08-08T15:32:17;23.00;88.10
8595;DHT22;4335;48.860;9.198;2023-08-08T15:34:47;23.00;88.10
8595;DHT22;4335;48.860;9.198;2023-08-08T15:37:16;23.00;86.80
8595;DHT22;4335;48.860;9.198;2023-08-08T15:39:43;23.10;87.30
8595;DHT22;4335;48.860;9.198;2023-08-08T15:42:13;23.10;87.50
8595;DHT22;4335;48.860;9.198;2023-08-08T15:44:40;23.10;88.20
8595;DHT22;4335;48.860;9.198;2023-08-08T15:47:14;23.10;89.80
8595;DHT22;4335;48.860;9.198;2023-08-08T15:49:40;23.10;89.20
8595;DHT22;4335;48.860;9.198;2023-08-08T15:52:10;23.20;89.10
8595;DHT22;4335;48.860;9.198;2023-08-08T15:54:38;23.00;89.60
8595;DHT22;4335;48.860;9.198;2023-08-08T15:57:06;22.90;90.10
8595;DHT22;4335;48.860;9.198;2023-08-08T15:59:36;22.70;90.70
8595;DHT22;4335;48.860;9.198;2023-08-08T16:02:03;22.70;90.90
8595;DHT22;4335;48.860;9.198;2023-08-08T16:04:30;22.80;91.20
8595;DHT22;4335;48.860;9.198;2023-08-08T16:06:59;22.80;91.30
8595;DHT22;4335;48.860;9.198;2023-08-08T16:09:35;22.90;91.50
8595;DHT22;4335;48.860;9.198;2023-08-08T16:12:01;22.90;91.60
8595;DHT22;4335;48.860;9.198;2023-08-08T16:14:29;22.90;91.80
8595;DHT22;4335;48.860;9.198;2023-08-08T16:16:55;22.90;92.00